Time;durP1;ratioP1;P1;durP2;ratioP2;P2;SDS_P1;SDS_P2;PMS_P1;PMS_P2;Temp;Humidity;BMP_temperature;BMP_pressure;BME280_temperature;BME280_humidity;BME280_pressure;Samples;Min_cycle;Max_cycle;Signal;HPM_P1;HPM_P2
2023/08/06 00:01:46;;;;;;;3.75;1.95;;;;;;;;;;5079019;28;20112;-62
2023/08/06 00:04:13;;;;;;;3.60;1.70;;;;;;;;;;5057081;28;20112;-62
2023/08/06 00:06:40;;;;;;;7.55;1.90;;;;;;;;;;5033756;28;20118;-65
2023/08/06 00:09:07;;;;;;;3.35;1.90;;;;;;;;;;5054685;28;20060;-62
2023/08/06 00:11:35;;;;;;;6.07;1.95;;;;;;;;;;5052241;28;20144;-63
2023/08/06 00:14:02;;;;;;;5.88;2.28;;;;;;;;;;5045162;28;20057;-61
2023/08/06 00:16:29;;;;;;;5.57;2.03;;;;;;;;;;5034535;28;20076;-59
2023/08/06 00:18:55;;;;;;;5.00;2.05;;;;;;;;;;5076594;28;20110;-62
2023/08/06 00:21:24;;;;;;;6.60;2.35;;;;;;;;;;5055990;28;20051;-66
2023/08/06 00:23:52;;;;;;;9.45;2.22;;;;;;;;;;5033632;28;20148;-62
2023/08/06 00:26:19;;;;;;;4.80;2.20;;;;;;;;;;5039388;28;20052;-62
2023/08/06 00:28:47;;;;;;;5.70;2.03;;;;;;;;;;5043827;28;20045;-62
2023/08/06 00:31:14;;;;;;;5.03;2.03;;;;;;;;;;5035577;28;20057;-61
2023/08/06 00:33:41;;;;;;;3.97;2.03;;;;;;;;;;5046613;28;20056;-64
2023/08/06 00:36:07;;;;;;;3.35;1.75;;;;;;;;;;5008375;28;20061;-63
2023/08/06 00:38:34;;;;;;;4.25;2.20;;;;;;;;;;5008213;28;20184;-61
2023/08/06 00:41:02;;;;;;;5.28;2.40;;;;;;;;;;5044878;28;20135;-59
2023/08/06 00:43:29;;;;;;;4.93;2.30;;;;;;;;;;5038909;28;20055;-59
2023/08/06 00:45:57;;;;;;;4.95;2.17;;;;;;;;;;5014798;28;20058;-59
2023/08/06 00:48:24;;;;;;;;;;;;;;;;;;5049819;28;20056;-62
2023/08/06 00:50:51;;;;;;;4.25;1.92;;;;;;;;;;5041610;28;19928;-60
2023/08/06 00:53:18;;;;;;;4.38;2.13;;;;;;;;;;5035326;28;20052;-62
2023/08/06 00:55:47;;;;;;;5.07;2.00;;;;;;;;;;5022265;28;20052;-64
2023/08/06 00:58:16;;;;;;;8.23;2.60;;;;;;;;;;5038096;28;20055;-60
2023/08/06 01:00:42;;;;;;;4.60;2.15;;;;;;;;;;5042700;28;20053;-64
2023/08/06 01:03:11;;;;;;;10.77;3.70;;;;;;;;;;5043311;28;20095;-61
2023/08/06 01:05:37;;;;;;;14.93;6.13;;;;;;;;;;5029585;28;20092;-62
2023/08/06 01:08:18;;;;;;;10.18;3.42;;;;;;;;;;5040786;28;20081;-62
2023/08/06 01:10:56;;;;;;;9.25;3.55;;;;;;;;;;5044004;28;20053;-62
2023/08/06 01:13:28;;;;;;;6.43;2.80;;;;;;;;;;5042607;28;20100;-64
2023/08/06 01:15:58;;;;;;;5.38;2.20;;;;;;;;;;5045595;28;20052;-62
2023/08/06 01:18:26;;;;;;;7.28;3.42;;;;;;;;;;5062482;28;20052;-63
2023/08/06 01:20:54;;;;;;;6.95;3.60;;;;;;;;;;5062919;28;20080;-64
2023/08/06 01:23:21;;;;;;;7.43;3.90;;;;;;;;;;5056658;28;20087;-60
2023/08/06 01:26:01;;;;;;;9.68;3.90;;;;;;;;;;5060032;28;20147;-63
2023/08/06 01:28:36;;;;;;;34.10;9.25;;;;;;;;;;5049207;28;20102;-62
2023/08/06 01:31:05;;;;;;;9.10;4.20;;;;;;;;;;5042595;28;20111;-60
2023/08/06 01:33:34;;;;;;;8.52;3.53;;;;;;;;;;5049693;28;20056;-64
2023/08/06 01:36:05;;;;;;;13.35;3.38;;;;;;;;;;5055837;28;20076;-62
2023/08/06 01:38:31;;;;;;;8.73;3.30;;;;;;;;;;5060232;28;20049;-64
2023/08/06 01:40:58;;;;;;;7.03;3.35;;;;;;;;;;5059802;28;20155;-61
2023/08/06 01:43:25;;;;;;;7.18;3.30;;;;;;;;;;5052058;28;20319;-61
2023/08/06 01:45:51;;;;;;;7.35;3.30;;;;;;;;;;5058168;28;20070;-64
2023/08/06 01:48:18;;;;;;;8.40;3.40;;;;;;;;;;5047941;28;20101;-61
2023/08/06 01:50:44;;;;;;;7.38;3.42;;;;;;;;;;5042358;28;20060;-61
2023/08/06 01:53:13;;;;;;;11.25;3.78;;;;;;;;;;5037994;28;20057;-61
2023/08/06 01:55:39;;;;;;;9.48;3.72;;;;;;;;;;5045472;28;20071;-62
2023/08/06 01:58:08;;;;;;;8.15;3.80;;;;;;;;;;5032591;28;20053;-63
2023/08/06 02:00:35;;;;;;;6.93;3.72;;;;;;;;;;5041250;28;20053;-61
2023/08/06 02:03:01;;;;;;;8.95;3.67;;;;;;;;;;5044248;28;20115;-62
2023/08/06 02:05:29;;;;;;;8.02;3.70;;;;;;;;;;4994383;28;20119;-64
2023/08/06 02:07:58;;;;;;;6.03;3.17;;;;;;;;;;5043966;28;20079;-65
2023/08/06 02:10:26;;;;;;;7.45;3.83;;;;;;;;;;5033125;28;20065;-60
2023/08/06 02:12:53;;;;;;;11.10;3.65;;;;;;;;;;5043514;28;20057;-61
2023/08/06 02:15:19;;;;;;;7.88;3.95;;;;;;;;;;5037238;28;20061;-63
2023/08/06 02:17:46;;;;;;;9.57;4.05;;;;;;;;;;5042197;28;20114;-62
2023/08/06 02:20:12;;;;;;;8.32;3.88;;;;;;;;;;5034260;28;20049;-61
2023/08/06 02:22:39;;;;;;;10.13;4.30;;;;;;;;;;5043021;28;20115;-62
2023/08/06 02:25:06;;;;;;;8.07;4.05;;;;;;;;;;5035223;28;20053;-61
2023/08/06 02:27:34;;;;;;;8.05;3.80;;;;;;;;;;5030090;28;20128;-61
2023/08/06 02:30:02;;;;;;;8.45;3.47;;;;;;;;;;5041045;28;20098;-64
2023/08/06 02:34:58;;;;;;;7.60;3.70;;;;;;;;;;4952244;28;20046;-60
2023/08/06 02:37:24;;;;;;;8.48;3.45;;;;;;;;;;4942417;28;20073;-64
2023/08/06 02:39:51;;;;;;;13.82;3.83;;;;;;;;;;4941952;28;20059;-65
2023/08/06 02:42:18;;;;;;;12.23;3.90;;;;;;;;;;4950926;28;20128;-63
2023/08/06 02:44:46;;;;;;;8.38;3.90;;;;;;;;;;4952407;28;20174;-65
2023/08/06 02:47:12;;;;;;;8.55;3.75;;;;;;;;;;4957678;28;20471;-65
2023/08/06 02:49:39;;;;;;;8.23;3.72;;;;;;;;;;4955967;28;20054;-61
2023/08/06 02:52:07;;;;;;;8.35;3.90;;;;;;;;;;4962291;28;20047;-63
2023/08/06 02:54:33;;;;;;;7.35;3.55;;;;;;;;;;4947709;28;20054;-63
2023/08/06 02:57:00;;;;;;;9.23;3.35;;;;;;;;;;4980933;28;20050;-62
2023/08/06 02:59:27;;;;;;;9.52;3.78;;;;;;;;;;4977188;28;20081;-62
2023/08/06 03:01:55;;;;;;;10.27;4.03;;;;;;;;;;4964702;28;20129;-64
2023/08/06 03:04:21;;;;;;;7.07;3.67;;;;;;;;;;4953982;28;20062;-62
2023/08/06 03:06:50;;;;;;;9.73;3.60;;;;;;;;;;4976539;28;20054;-65
2023/08/06 03:09:17;;;;;;;7.03;3.58;;;;;;;;;;4976632;28;20060;-61
2023/08/06 03:11:43;;;;;;;7.78;3.55;;;;;;;;;;4975739;28;20058;-64
2023/08/06 03:14:10;;;;;;;6.88;3.35;;;;;;;;;;4970274;28;20054;-62
2023/08/06 03:16:37;;;;;;;6.68;3.15;;;;;;;;;;4976910;28;20055;-63
2023/08/06 03:19:05;;;;;;;7.30;3.40;;;;;;;;;;4976782;28;20058;-61
2023/08/06 03:21:32;;;;;;;7.75;3.20;;;;;;;;;;4978582;28;20142;-63
2023/08/06 03:23:58;;;;;;;8.07;3.60;;;;;;;;;;4974448;28;20066;-61
2023/08/06 03:26:25;;;;;;;9.75;3.72;;;;;;;;;;4966867;28;20062;-62
2023/08/06 03:28:51;;;;;;;7.35;3.50;;;;;;;;;;4955767;28;20058;-63
2023/08/06 03:31:18;;;;;;;10.32;4.07;;;;;;;;;;4974262;28;20182;-64
2023/08/06 03:33:45;;;;;;;8.07;3.40;;;;;;;;;;4943831;28;20050;-62
2023/08/06 03:36:13;;;;;;;10.25;3.50;;;;;;;;;;4968925;28;20266;-65
2023/08/06 03:38:40;;;;;;;8.00;3.63;;;;;;;;;;4958476;28;20116;-62
2023/08/06 03:41:06;;;;;;;10.55;4.03;;;;;;;;;;4978639;28;20054;-63
2023/08/06 03:43:33;;;;;;;8.55;4.07;;;;;;;;;;4978277;28;20126;-63
2023/08/06 03:46:00;;;;;;;9.10;4.15;;;;;;;;;;4958523;28;20076;-62
2023/08/06 03:48:26;;;;;;;7.60;3.78;;;;;;;;;;4970254;28;20135;-64
2023/08/06 03:50:53;;;;;;;9.10;3.75;;;;;;;;;;4978694;28;20449;-62
2023/08/06 03:53:21;;;;;;;8.38;3.85;;;;;;;;;;4995316;28;20050;-61
2023/08/06 03:55:48;;;;;;;10.15;4.03;;;;;;;;;;4975437;28;20115;-63
2023/08/06 03:58:14;;;;;;;11.57;4.60;;;;;;;;;;4957572;28;20085;-62
2023/08/06 04:00:41;;;;;;;6.72;3.60;;;;;;;;;;4963215;28;20064;-61
2023/08/06 04:03:08;;;;;;;9.25;4.18;;;;;;;;;;4964563;28;20054;-65
2023/08/06 04:05:34;;;;;;;8.73;4.35;;;;;;;;;;4974325;28;20109;-64
2023/08/06 04:08:01;;;;;;;8.52;4.18;;;;;;;;;;4981140;28;20062;-63
2023/08/06 04:10:30;;;;;;;7.13;3.50;;;;;;;;;;4978614;28;20106;-61
2023/08/06 04:12:56;;;;;;;8.50;3.97;;;;;;;;;;4982837;28;20120;-64
2023/08/06 04:15:23;;;;;;;7.95;3.75;;;;;;;;;;4977646;28;20112;-62
2023/08/06 04:17:50;;;;;;;10.32;4.40;;;;;;;;;;4982386;28;20128;-63
2023/08/06 04:20:16;;;;;;;7.70;3.83;;;;;;;;;;4955948;28;20043;-61
2023/08/06 04:22:43;;;;;;;7.97;4.13;;;;;;;;;;4963508;28;20050;-62
2023/08/06 04:25:10;;;;;;;7.72;3.72;;;;;;;;;;4959824;28;20062;-60
2023/08/06 04:27:41;;;;;;;8.27;4.07;;;;;;;;;;4982902;28;20120;-62
2023/08/06 04:30:11;;;;;;;8.18;4.57;;;;;;;;;;4977989;28;20061;-64
2023/08/06 04:32:38;;;;;;;7.88;4.10;;;;;;;;;;4980824;28;20065;-63
2023/08/06 04:35:05;;;;;;;7.65;4.05;;;;;;;;;;4956964;28;20058;-59
2023/08/06 04:37:32;;;;;;;9.52;4.18;;;;;;;;;;4961590;28;20062;-61
2023/08/06 04:39:58;;;;;;;8.90;4.50;;;;;;;;;;4974847;28;20081;-61
2023/08/06 04:42:25;;;;;;;64.60;32.63;;;;;;;;;;4955421;28;20112;-60
2023/08/06 04:44:53;;;;;;;18.98;8.77;;;;;;;;;;4956737;28;20054;-63
2023/08/06 04:47:20;;;;;;;12.50;5.05;;;;;;;;;;4971313;28;20117;-63
2023/08/06 04:49:47;;;;;;;8.00;4.05;;;;;;;;;;4973544;28;20090;-61
2023/08/06 04:52:13;;;;;;;9.35;4.22;;;;;;;;;;4955047;28;20111;-61
2023/08/06 04:54:40;;;;;;;7.05;3.83;;;;;;;;;;4948836;28;20118;-64
2023/08/06 04:57:07;;;;;;;8.35;3.63;;;;;;;;;;4963002;28;20097;-60
2023/08/06 04:59:33;;;;;;;8.13;3.85;;;;;;;;;;4976734;28;20089;-62
2023/08/06 05:02:02;;;;;;;9.07;4.47;;;;;;;;;;4961866;28;20058;-61
2023/08/06 05:04:28;;;;;;;7.35;4.00;;;;;;;;;;4957109;28;20058;-63
2023/08/06 05:06:55;;;;;;;9.85;3.83;;;;;;;;;;4958206;28;20133;-63
2023/08/06 05:09:22;;;;;;;7.68;3.65;;;;;;;;;;4972906;28;20067;-61
2023/08/06 05:11:49;;;;;;;8.77;4.07;;;;;;;;;;4972871;28;20066;-61
2023/08/06 05:14:15;;;;;;;7.75;3.97;;;;;;;;;;4948744;28;20058;-63
2023/08/06 05:16:42;;;;;;;9.40;3.97;;;;;;;;;;4960157;28;20146;-63
2023/08/06 05:19:10;;;;;;;9.10;4.18;;;;;;;;;;4976940;28;20055;-62
2023/08/06 05:21:37;;;;;;;6.55;3.63;;;;;;;;;;4978481;28;20167;-64
2023/08/06 05:24:04;;;;;;;9.23;4.13;;;;;;;;;;4969147;28;20193;-65
2023/08/06 05:26:31;;;;;;;10.68;4.15;;;;;;;;;;4956532;28;20113;-60
2023/08/06 05:28:57;;;;;;;7.65;3.85;;;;;;;;;;4960890;28;20085;-63
2023/08/06 05:31:24;;;;;;;7.85;3.75;;;;;;;;;;4960783;28;20067;-64
2023/08/06 05:33:51;;;;;;;9.20;4.18;;;;;;;;;;4954907;28;20054;-64
2023/08/06 05:36:19;;;;;;;8.32;3.67;;;;;;;;;;4953615;28;20057;-62
2023/08/06 05:38:45;;;;;;;6.85;3.65;;;;;;;;;;4987805;28;20062;-63
2023/08/06 05:41:12;;;;;;;7.22;3.42;;;;;;;;;;4958782;28;20093;-61
2023/08/06 05:43:39;;;;;;;10.30;3.88;;;;;;;;;;4976126;28;20113;-63
2023/08/06 05:46:05;;;;;;;12.25;3.95;;;;;;;;;;4955663;28;20065;-60
2023/08/06 05:48:32;;;;;;;6.90;3.58;;;;;;;;;;4954829;28;20118;-66
2023/08/06 05:50:59;;;;;;;8.45;4.20;;;;;;;;;;4975646;28;20146;-62
2023/08/06 05:53:27;;;;;;;9.05;3.80;;;;;;;;;;4975443;28;20046;-62
2023/08/06 05:55:54;;;;;;;10.45;4.20;;;;;;;;;;4973675;28;20083;-60
2023/08/06 05:58:20;;;;;;;8.43;4.07;;;;;;;;;;4964979;28;20054;-62
2023/08/06 06:00:47;;;;;;;7.57;3.85;;;;;;;;;;4959772;28;20051;-64
2023/08/06 06:03:14;;;;;;;7.85;4.25;;;;;;;;;;4958929;28;20059;-62
2023/08/06 06:05:41;;;;;;;10.50;4.30;;;;;;;;;;4944903;28;20086;-63
2023/08/06 06:08:08;;;;;;;8.18;4.28;;;;;;;;;;4972636;28;20062;-59
2023/08/06 06:10:36;;;;;;;11.40;4.55;;;;;;;;;;4953739;28;20137;-66
2023/08/06 06:13:03;;;;;;;9.02;4.43;;;;;;;;;;4953322;28;20083;-61
2023/08/06 06:15:30;;;;;;;9.20;4.22;;;;;;;;;;4931213;28;20048;-61
2023/08/06 06:17:57;;;;;;;10.43;4.95;;;;;;;;;;4944176;28;20082;-63
2023/08/06 06:20:23;;;;;;;13.70;5.35;;;;;;;;;;4949180;28;20055;-60
2023/08/06 06:22:50;;;;;;;10.90;5.85;;;;;;;;;;4942243;28;20067;-62
2023/08/06 06:25:17;;;;;;;12.75;5.60;;;;;;;;;;4953652;28;20094;-63
2023/08/06 06:27:45;;;;;;;10.45;5.95;;;;;;;;;;4976208;28;20106;-62
2023/08/06 06:30:12;;;;;;;12.52;6.05;;;;;;;;;;4969922;28;20063;-64
2023/08/06 06:32:40;;;;;;;12.40;6.17;;;;;;;;;;4942077;28;20114;-65
2023/08/06 06:35:07;;;;;;;14.07;6.47;;;;;;;;;;4954724;28;20047;-64
2023/08/06 06:37:33;;;;;;;14.45;6.32;;;;;;;;;;4960875;28;20066;-62
2023/08/06 06:40:00;;;;;;;14.38;6.65;;;;;;;;;;4942297;28;20073;-61
2023/08/06 06:42:27;;;;;;;13.35;7.05;;;;;;;;;;4964388;28;20050;-62
2023/08/06 06:44:55;;;;;;;15.55;7.80;;;;;;;;;;4974591;28;20137;-63
2023/08/06 06:47:22;;;;;;;16.92;8.93;;;;;;;;;;4978959;28;20046;-63
2023/08/06 06:49:48;;;;;;;16.65;8.35;;;;;;;;;;4983610;28;20046;-65
2023/08/06 06:52:15;;;;;;;13.00;7.20;;;;;;;;;;4971205;28;20161;-60
2023/08/06 06:54:42;;;;;;;17.98;8.77;;;;;;;;;;4958797;28;20085;-62
2023/08/06 06:57:08;;;;;;;13.68;7.20;;;;;;;;;;4979754;28;20124;-67
2023/08/06 06:59:35;;;;;;;25.67;10.18;;;;;;;;;;4982409;28;20062;-67
2023/08/06 07:02:04;;;;;;;26.40;13.07;;;;;;;;;;4982993;28;20146;-65
2023/08/06 07:04:31;;;;;;;19.23;9.18;;;;;;;;;;4970947;28;20069;-65
2023/08/06 07:06:57;;;;;;;15.38;7.78;;;;;;;;;;4981645;28;20069;-61
2023/08/06 07:09:25;;;;;;;15.05;7.68;;;;;;;;;;4959820;28;20067;-61
2023/08/06 07:11:51;;;;;;;20.77;9.60;;;;;;;;;;4964367;28;20125;-63
2023/08/06 07:14:18;;;;;;;20.42;7.88;;;;;;;;;;4968120;28;20058;-61
2023/08/06 07:16:45;;;;;;;13.45;7.15;;;;;;;;;;4962799;28;20120;-64
2023/08/06 07:19:13;;;;;;;15.25;7.85;;;;;;;;;;4946220;28;20150;-63
2023/08/06 07:21:40;;;;;;;14.20;7.70;;;;;;;;;;4959010;28;20070;-65
2023/08/06 07:24:06;;;;;;;18.25;7.35;;;;;;;;;;4946746;28;20086;-60
2023/08/06 07:26:33;;;;;;;15.68;8.40;;;;;;;;;;4963849;28;20120;-60
2023/08/06 07:29:00;;;;;;;12.85;7.43;;;;;;;;;;4966352;28;20066;-63
2023/08/06 07:31:27;;;;;;;15.95;8.00;;;;;;;;;;4963454;28;20051;-60
2023/08/06 07:33:53;;;;;;;16.95;8.75;;;;;;;;;;4933268;28;20051;-63
2023/08/06 07:36:22;;;;;;;16.27;8.45;;;;;;;;;;4970610;28;20074;-64
2023/08/06 07:38:55;;;;;;;19.40;8.43;;;;;;;;;;4981697;28;20059;-63
2023/08/06 07:41:22;;;;;;;15.63;7.88;;;;;;;;;;4966809;28;20070;-65
2023/08/06 07:43:49;;;;;;;18.05;8.55;;;;;;;;;;4961813;28;20113;-61
2023/08/06 07:46:15;;;;;;;18.35;8.57;;;;;;;;;;4959448;28;20059;-60
2023/08/06 07:48:42;;;;;;;18.23;8.70;;;;;;;;;;4996093;28;20069;-65
2023/08/06 07:51:09;;;;;;;26.80;13.20;;;;;;;;;;4950227;28;20066;-60
2023/08/06 07:53:37;;;;;;;24.85;11.93;;;;;;;;;;4949615;28;20050;-62
2023/08/06 07:56:06;;;;;;;15.32;7.60;;;;;;;;;;4959691;28;20062;-63
2023/08/06 07:58:32;;;;;;;13.50;6.90;;;;;;;;;;4975771;28;20046;-60
2023/08/06 08:00:59;;;;;;;12.48;6.53;;;;;;;;;;4962886;28;20150;-64
2023/08/06 08:03:26;;;;;;;13.88;6.85;;;;;;;;;;4996083;28;20150;-65
2023/08/06 08:05:58;;;;;;;12.52;6.45;;;;;;;;;;4954340;28;20055;-64
2023/08/06 08:08:25;;;;;;;18.50;7.07;;;;;;;;;;4970621;28;20047;-64
2023/08/06 08:10:58;;;;;;;12.23;6.35;;;;;;;;;;4965306;28;20086;-63
2023/08/06 08:13:25;;;;;;;11.98;6.30;;;;;;;;;;4978487;28;20058;-64
2023/08/06 08:15:57;;;;;;;14.95;7.28;;;;;;;;;;4964729;28;20145;-63
2023/08/06 08:18:24;;;;;;;16.85;8.88;;;;;;;;;;4971821;28;20050;-63
2023/08/06 08:20:51;;;;;;;13.23;6.85;;;;;;;;;;4978047;28;20058;-67
2023/08/06 08:23:18;;;;;;;11.77;5.55;;;;;;;;;;4976744;28;20143;-64
2023/08/06 08:25:45;;;;;;;12.85;5.80;;;;;;;;;;4975475;28;20102;-64
2023/08/06 08:28:13;;;;;;;9.88;5.47;;;;;;;;;;4972978;28;20062;-61
2023/08/06 08:30:41;;;;;;;10.25;4.95;;;;;;;;;;4980570;28;20137;-64
2023/08/06 08:33:08;;;;;;;;;;;;;;;;;;4968045;28;20067;-61
2023/08/06 08:35:35;;;;;;;8.68;3.92;;;;;;;;;;4958273;28;19936;-62
2023/08/06 08:38:05;;;;;;;8.45;3.80;;;;;;;;;;4969454;28;20125;-63
2023/08/06 08:40:33;;;;;;;6.57;3.50;;;;;;;;;;4978565;28;20058;-65
2023/08/06 08:43:01;;;;;;;6.40;3.30;;;;;;;;;;4998435;28;20066;-64
2023/08/06 08:45:30;;;;;;;8.80;3.30;;;;;;;;;;4976514;28;20058;-64
2023/08/06 08:47:57;;;;;;;6.35;3.50;;;;;;;;;;4997482;28;20058;-61
2023/08/06 08:50:24;;;;;;;5.50;3.03;;;;;;;;;;4976533;28;20278;-67
2023/08/06 08:52:51;;;;;;;6.68;3.35;;;;;;;;;;4964333;28;20054;-65
2023/08/06 08:55:21;;;;;;;4.60;2.28;;;;;;;;;;4978269;28;20116;-65
2023/08/06 08:57:47;;;;;;;6.57;3.35;;;;;;;;;;4967046;28;20058;-61
2023/08/06 09:00:14;;;;;;;8.88;3.65;;;;;;;;;;4974831;28;20140;-63
2023/08/06 09:02:43;;;;;;;2.65;1.33;;;;;;;;;;4964156;28;20062;-63
2023/08/06 09:05:11;;;;;;;0.43;0.43;;;;;;;;;;4974190;28;20118;-62
2023/08/06 09:07:43;;;;;;;0.80;0.70;;;;;;;;;;4981761;28;20042;-64
2023/08/06 09:10:15;;;;;;;0.60;0.60;;;;;;;;;;4957504;28;20289;-66
2023/08/06 09:12:45;;;;;;;1.92;1.10;;;;;;;;;;4960199;28;20142;-64
2023/08/06 09:15:13;;;;;;;1.63;1.05;;;;;;;;;;4968409;28;20084;-65
2023/08/06 09:17:40;;;;;;;1.35;1.00;;;;;;;;;;4982282;28;20129;-65
2023/08/06 09:20:15;;;;;;;2.03;1.00;;;;;;;;;;4980335;28;20074;-67
2023/08/06 09:22:49;;;;;;;2.28;1.05;;;;;;;;;;4973942;28;20065;-65
2023/08/06 09:25:24;;;;;;;1.20;0.88;;;;;;;;;;4948278;28;20059;-67
2023/08/06 09:27:54;;;;;;;1.30;0.98;;;;;;;;;;4988904;28;20065;-64
2023/08/06 09:30:31;;;;;;;1.70;0.93;;;;;;;;;;4973403;28;20073;-68
2023/08/06 09:32:59;;;;;;;0.98;0.63;;;;;;;;;;4985660;28;20046;-66
2023/08/06 09:35:37;;;;;;;1.00;0.55;;;;;;;;;;4944978;28;20322;-63
2023/08/06 09:38:11;;;;;;;0.77;0.70;;;;;;;;;;4983684;28;20065;-66
2023/08/06 09:40:39;;;;;;;0.93;0.75;;;;;;;;;;4964481;28;20083;-67
2023/08/06 09:43:09;;;;;;;1.70;0.90;;;;;;;;;;4963333;28;20061;-68
2023/08/06 09:45:42;;;;;;;1.38;0.88;;;;;;;;;;4950194;28;20074;-65
2023/08/06 09:48:15;;;;;;;1.65;1.00;;;;;;;;;;4978954;28;20066;-64
2023/08/06 09:50:56;;;;;;;1.83;0.90;;;;;;;;;;4965471;28;20116;-66
2023/08/06 09:53:28;;;;;;;12.73;5.10;;;;;;;;;;4983761;28;20050;-64
2023/08/06 09:56:09;;;;;;;7.57;2.08;;;;;;;;;;4941271;28;20058;-64
2023/08/06 09:58:39;;;;;;;4.88;1.23;;;;;;;;;;4959222;28;20071;-62
2023/08/06 10:04:25;;;;;;;2.58;1.20;;;;;;;;;;4910422;28;20062;-62
2023/08/06 10:06:55;;;;;;;3.17;1.30;;;;;;;;;;4959143;28;20073;-62
2023/08/06 10:09:28;;;;;;;2.80;1.40;;;;;;;;;;4959095;28;20153;-63
2023/08/06 10:11:55;;;;;;;3.60;1.52;;;;;;;;;;4946403;28;20050;-64
2023/08/06 10:14:26;;;;;;;2.72;1.25;;;;;;;;;;4970842;28;20058;-63
2023/08/06 10:16:54;;;;;;;3.25;1.40;;;;;;;;;;4981571;28;20062;-65
2023/08/06 10:19:21;;;;;;;3.13;1.48;;;;;;;;;;4968178;28;20092;-63
2023/08/06 10:22:11;;;;;;;1.52;1.00;;;;;;;;;;4980371;28;20054;-66
2023/08/06 10:24:52;;;;;;;1.92;1.13;;;;;;;;;;4948483;28;20073;-65
2023/08/06 10:27:24;;;;;;;3.80;1.70;;;;;;;;;;4957558;28;20129;-64
2023/08/06 10:29:51;;;;;;;3.55;1.42;;;;;;;;;;4979366;28;20069;-63
2023/08/06 10:32:19;;;;;;;2.97;1.50;;;;;;;;;;4973591;28;20071;-63
2023/08/06 10:34:59;;;;;;;3.28;1.50;;;;;;;;;;4954458;28;20088;-63
2023/08/06 10:37:39;;;;;;;4.70;1.60;;;;;;;;;;4994925;28;20078;-63
2023/08/06 10:40:08;;;;;;;4.53;1.52;;;;;;;;;;4981615;28;20062;-63
2023/08/06 10:42:35;;;;;;;5.50;1.88;;;;;;;;;;4971113;28;20055;-61
2023/08/06 10:45:19;;;;;;;3.80;1.77;;;;;;;;;;4952864;28;20063;-62
2023/08/06 10:47:46;;;;;;;3.50;1.73;;;;;;;;;;4960356;28;20102;-63
2023/08/06 10:50:17;;;;;;;3.35;1.58;;;;;;;;;;4968597;28;20047;-61
2023/08/06 10:52:46;;;;;;;4.13;2.00;;;;;;;;;;4963070;28;20178;-62
2023/08/06 10:55:22;;;;;;;5.95;2.30;;;;;;;;;;4956139;28;20057;-62
2023/08/06 10:57:49;;;;;;;4.40;1.95;;;;;;;;;;4967342;28;20059;-62
2023/08/06 11:00:18;;;;;;;6.00;2.13;;;;;;;;;;4955614;28;20062;-61
2023/08/06 11:02:47;;;;;;;3.08;1.42;;;;;;;;;;4964599;28;20054;-61
2023/08/06 11:05:14;;;;;;;4.25;1.90;;;;;;;;;;4959739;28;20100;-62
2023/08/06 11:07:44;;;;;;;5.20;1.92;;;;;;;;;;4982251;28;20054;-63
2023/08/06 11:10:18;;;;;;;5.80;2.00;;;;;;;;;;4959058;28;20055;-66
2023/08/06 11:12:45;;;;;;;6.10;2.08;;;;;;;;;;4959093;28;20057;-63
2023/08/06 11:15:22;;;;;;;7.00;2.17;;;;;;;;;;4955857;28;20054;-63
2023/08/06 11:17:48;;;;;;;5.65;2.08;;;;;;;;;;4994111;28;20086;-64
2023/08/06 11:23:15;;;;;;;4.90;2.10;;;;;;;;;;4960037;28;20062;-64
2023/08/06 11:25:46;;;;;;;3.63;1.75;;;;;;;;;;4892865;28;20046;-64
2023/08/06 11:28:48;;;;;;;4.97;2.08;;;;;;;;;;4952372;28;20055;-64
2023/08/06 11:31:53;;;;;;;5.25;1.83;;;;;;;;;;4960106;28;20077;-64
2023/08/06 11:34:20;;;;;;;3.67;1.65;;;;;;;;;;4947469;28;20063;-62
2023/08/06 11:36:46;;;;;;;4.50;1.70;;;;;;;;;;4927439;28;20063;-66
2023/08/06 11:39:13;;;;;;;3.53;1.48;;;;;;;;;;4938753;28;20063;-65
2023/08/06 11:41:42;;;;;;;10.93;4.30;;;;;;;;;;4980052;28;20082;-65
2023/08/06 11:44:13;;;;;;;5.30;2.40;;;;;;;;;;4951976;28;20059;-66
2023/08/06 11:46:55;;;;;;;6.72;2.83;;;;;;;;;;4957192;28;20059;-66
2023/08/06 11:49:24;;;;;;;6.63;2.33;;;;;;;;;;4960827;28;20063;-66
2023/08/06 11:51:51;;;;;;;6.53;1.73;;;;;;;;;;4959257;28;20058;-63
2023/08/06 11:54:33;;;;;;;4.88;1.75;;;;;;;;;;4933453;28;20198;-63
2023/08/06 11:57:04;;;;;;;5.55;2.40;;;;;;;;;;4952688;28;20082;-66
2023/08/06 11:59:31;;;;;;;8.10;2.55;;;;;;;;;;4975209;28;20141;-67
2023/08/06 12:01:57;;;;;;;5.13;1.70;;;;;;;;;;4960686;28;20141;-66
2023/08/06 12:04:26;;;;;;;5.97;1.67;;;;;;;;;;4909632;28;20059;-66
2023/08/06 12:06:54;;;;;;;3.70;1.65;;;;;;;;;;4946184;28;20059;-66
2023/08/06 12:09:21;;;;;;;4.87;1.73;;;;;;;;;;4961562;28;20058;-66
2023/08/06 12:11:48;;;;;;;5.57;1.63;;;;;;;;;;4948815;28;20054;-66
2023/08/06 12:14:19;;;;;;;4.38;1.80;;;;;;;;;;4947365;28;20078;-65
2023/08/06 12:16:46;;;;;;;5.32;2.00;;;;;;;;;;4927194;28;20054;-65
2023/08/06 12:19:13;;;;;;;4.40;2.08;;;;;;;;;;4967105;28;20050;-66
2023/08/06 12:21:40;;;;;;;6.25;2.00;;;;;;;;;;4948438;28;20081;-65
2023/08/06 12:24:07;;;;;;;3.55;1.58;;;;;;;;;;4947759;28;20077;-63
2023/08/06 12:26:39;;;;;;;2.95;1.65;;;;;;;;;;4900108;28;21522;-63
2023/08/06 12:29:09;;;;;;;3.40;1.50;;;;;;;;;;4946236;28;20062;-67
2023/08/06 12:31:44;;;;;;;3.25;1.40;;;;;;;;;;4964993;28;20109;-64
2023/08/06 12:34:13;;;;;;;4.22;1.65;;;;;;;;;;4951122;28;20070;-63
2023/08/06 12:36:39;;;;;;;2.53;1.30;;;;;;;;;;4910245;29;20060;-66
2023/08/06 12:39:12;;;;;;;3.42;1.40;;;;;;;;;;4918818;29;20059;-63
2023/08/06 12:41:43;;;;;;;4.72;1.42;;;;;;;;;;4949229;29;20047;-64
2023/08/06 12:44:17;;;;;;;4.18;1.60;;;;;;;;;;4944005;28;20055;-64
2023/08/06 12:46:49;;;;;;;3.40;1.58;;;;;;;;;;4880528;29;20064;-66
2023/08/06 12:49:20;;;;;;;2.20;1.10;;;;;;;;;;4942120;28;20055;-65
2023/08/06 12:52:07;;;;;;;2.20;1.27;;;;;;;;;;4944291;29;20063;-62
2023/08/06 12:54:38;;;;;;;4.80;1.45;;;;;;;;;;4934438;28;21153;-64
2023/08/06 12:57:05;;;;;;;2.97;1.13;;;;;;;;;;4945492;28;20131;-62
2023/08/06 12:59:36;;;;;;;4.55;1.30;;;;;;;;;;4945474;28;20091;-63
2023/08/06 13:02:44;;;;;;;4.60;1.55;;;;;;;;;;4944059;28;20063;-63
2023/08/06 13:05:19;;;;;;;5.28;2.17;;;;;;;;;;4875751;28;20059;-61
2023/08/06 13:07:46;;;;;;;5.38;1.50;;;;;;;;;;4947487;29;20062;-64
2023/08/06 13:10:15;;;;;;;7.50;1.10;;;;;;;;;;4938498;28;20146;-64
2023/08/06 13:12:44;;;;;;;3.08;1.35;;;;;;;;;;4944440;28;20063;-65
2023/08/06 13:15:55;;;;;;;3.60;1.38;;;;;;;;;;4907680;28;20090;-63
2023/08/06 13:18:27;;;;;;;2.22;1.08;;;;;;;;;;4921489;28;20329;-63
2023/08/06 13:21:45;;;;;;;3.20;1.30;;;;;;;;;;4966596;28;20050;-64
2023/08/06 13:24:14;;;;;;;3.63;1.30;;;;;;;;;;4956254;28;20078;-64
2023/08/06 13:26:41;;;;;;;1.95;1.00;;;;;;;;;;4941235;28;20054;-66
2023/08/06 13:29:10;;;;;;;4.22;1.42;;;;;;;;;;4963302;28;20075;-65
2023/08/06 13:31:38;;;;;;;3.80;1.27;;;;;;;;;;4955814;28;20115;-64
2023/08/06 13:34:06;;;;;;;;;;;;;;;;;;4951948;28;20067;-66
2023/08/06 13:36:33;;;;;;;5.93;1.77;;;;;;;;;;4913190;28;20852;-65
2023/08/06 13:39:01;;;;;;;2.22;1.05;;;;;;;;;;4961965;28;20261;-63
2023/08/06 13:41:28;;;;;;;2.78;1.17;;;;;;;;;;4962681;28;20081;-66
2023/08/06 13:43:57;;;;;;;4.75;1.67;;;;;;;;;;4965361;28;20055;-66
2023/08/06 13:46:24;;;;;;;3.97;1.80;;;;;;;;;;4950790;28;20190;-64
2023/08/06 13:48:51;;;;;;;3.90;1.13;;;;;;;;;;4975471;28;20054;-64
2023/08/06 13:51:20;;;;;;;4.70;1.10;;;;;;;;;;4965235;28;20133;-64
2023/08/06 13:53:54;;;;;;;3.40;1.52;;;;;;;;;;4957298;28;20057;-65
2023/08/06 13:56:21;;;;;;;4.78;1.40;;;;;;;;;;4923252;28;20143;-64
2023/08/06 13:58:49;;;;;;;3.47;1.20;;;;;;;;;;4946799;28;20039;-65
2023/08/06 14:01:34;;;;;;;2.13;1.00;;;;;;;;;;4963213;28;20057;-64
2023/08/06 14:04:00;;;;;;;2.15;1.15;;;;;;;;;;4962761;28;20088;-64
2023/08/06 14:06:31;;;;;;;3.75;1.20;;;;;;;;;;4943924;28;20055;-64
2023/08/06 14:08:58;;;;;;;4.75;1.10;;;;;;;;;;4963258;28;20137;-65
2023/08/06 14:11:27;;;;;;;3.78;1.48;;;;;;;;;;4960251;28;20055;-64
2023/08/06 14:14:32;;;;;;;4.63;1.35;;;;;;;;;;4964799;28;20051;-65
2023/08/06 14:17:02;;;;;;;3.60;1.08;;;;;;;;;;4949665;28;20068;-64
2023/08/06 14:19:29;;;;;;;4.90;1.08;;;;;;;;;;4959935;28;20146;-65
2023/08/06 14:24:42;;;;;;;2.85;1.27;;;;;;;;;;4958600;28;20257;-65
2023/08/06 14:27:09;;;;;;;5.65;1.15;;;;;;;;;;4905742;28;20059;-65
2023/08/06 14:29:36;;;;;;;3.08;1.15;;;;;;;;;;4952719;28;20042;-65
2023/08/06 14:32:09;;;;;;;2.65;1.23;;;;;;;;;;4979686;28;20043;-65
2023/08/06 14:34:39;;;;;;;3.10;1.30;;;;;;;;;;4942513;28;20062;-65
2023/08/06 14:37:11;;;;;;;2.28;0.82;;;;;;;;;;4936824;29;20058;-64
2023/08/06 14:39:40;;;;;;;2.50;1.10;;;;;;;;;;4941864;29;20062;-65
2023/08/06 14:42:17;;;;;;;2.63;1.30;;;;;;;;;;4942301;28;20058;-65
2023/08/06 14:44:44;;;;;;;6.10;1.27;;;;;;;;;;4937223;29;20086;-65
2023/08/06 14:47:15;;;;;;;2.92;1.35;;;;;;;;;;4921488;29;20085;-64
2023/08/06 14:49:44;;;;;;;5.75;1.40;;;;;;;;;;4944300;28;20141;-65
2023/08/06 14:52:22;;;;;;;2.70;1.30;;;;;;;;;;4925883;29;20086;-64
2023/08/06 14:54:55;;;;;;;5.03;1.17;;;;;;;;;;4919113;29;20052;-64
2023/08/06 14:57:28;;;;;;;4.75;1.30;;;;;;;;;;4929870;29;20059;-66
2023/08/06 14:59:55;;;;;;;2.25;1.23;;;;;;;;;;4940705;28;20065;-64
2023/08/06 15:02:23;;;;;;;5.32;1.10;;;;;;;;;;4944364;29;20043;-66
2023/08/06 15:04:50;;;;;;;2.45;0.95;;;;;;;;;;4939472;28;20143;-66